createdAt,value
2023-03-22T00:01:32.470Z,75.03
2023-03-22T00:04:03.542Z,75.03
2023-03-22T00:06:34.226Z,75.17
2023-03-22T00:09:05.078Z,75.15
2023-03-22T00:11:35.702Z,75.06
2023-03-22T00:14:06.303Z,74.92
2023-03-22T00:16:37.138Z,74.94
2023-03-22T00:19:07.826Z,74.71
2023-03-22T00:21:38.569Z,74.83
2023-03-22T00:24:10.384Z,74.80
2023-03-22T00:26:41.321Z,75.07
2023-03-22T00:29:11.925Z,75.32
2023-03-22T00:31:42.775Z,75.22
2023-03-22T00:34:13.540Z,75.34
2023-03-22T00:36:44.147Z,75.41
2023-03-22T00:39:14.762Z,75.13
2023-03-22T00:41:45.387Z,75.18
2023-03-22T00:44:16.036Z,74.97
2023-03-22T00:46:46.872Z,75.13
2023-03-22T00:49:18.915Z,74.95
2023-03-22T00:51:50.292Z,74.79
2023-03-22T00:54:21.674Z,74.50
2023-03-22T00:56:52.416Z,74.39
2023-03-22T00:59:23.567Z,74.24
2023-03-22T01:01:54.248Z,74.43
2023-03-22T01:04:26.320Z,74.50
2023-03-22T01:07:01.430Z,74.36
2023-03-22T01:09:33.869Z,74.29
2023-03-22T01:12:05.045Z,74.21
2023-03-22T01:14:35.695Z,74.27
2023-03-22T01:17:07.282Z,74.25
2023-03-22T01:19:38.843Z,74.30
2023-03-22T01:22:10.158Z,74.35
2023-03-22T01:24:40.957Z,74.32
2023-03-22T01:27:12.013Z,74.49
2023-03-22T01:29:44.754Z,74.23
2023-03-22T01:32:15.994Z,73.94
2023-03-22T01:34:47.066Z,74.06
2023-03-22T01:37:18.165Z,73.85
2023-03-22T01:39:49.551Z,74.01
2023-03-22T01:42:22.319Z,73.76
2023-03-22T01:45:34.152Z,73.49
2023-03-22T01:48:09.378Z,73.64
2023-03-22T01:50:43.736Z,73.77
2023-03-22T01:53:19.025Z,73.94
2023-03-22T01:55:50.689Z,73.78
2023-03-22T01:58:27.459Z,73.81
2023-03-22T02:01:01.162Z,74.04
2023-03-22T02:03:49.809Z,73.60
2023-03-22T02:06:21.612Z,73.55
2023-03-22T02:08:58.055Z,72.96
2023-03-22T02:11:33.405Z,73.52
2023-03-22T02:14:17.925Z,73.39
2023-03-22T02:17:15.767Z,73.43
2023-03-22T02:20:31.722Z,73.02
2023-03-22T02:23:27.998Z,73.47
2023-03-22T02:26:28.356Z,73.04
2023-03-22T02:29:08.345Z,73.08
2023-03-22T02:32:06.273Z,73.51
2023-03-22T02:34:54.020Z,73.50
2023-03-22T02:38:04.535Z,73.70
2023-03-22T02:40:41.059Z,74.35
2023-03-22T02:43:24.730Z,74.52
2023-03-22T02:46:03.990Z,75.14
2023-03-22T02:48:41.509Z,74.43
2023-03-22T02:51:19.146Z,74.12
2023-03-22T02:53:54.803Z,73.72
2023-03-22T02:56:30.272Z,73.75
2023-03-22T02:59:04.172Z,74.13
2023-03-22T03:01:40.693Z,73.96
2023-03-22T03:04:20.726Z,74.40
2023-03-22T03:06:55.403Z,73.96
2023-03-22T03:09:26.940Z,74.00
2023-03-22T03:11:57.786Z,74.51
2023-03-22T03:14:30.228Z,74.56
2023-03-22T03:17:16.727Z,74.81
2023-03-22T03:19:58.675Z,75.01
2023-03-22T03:22:42.888Z,75.40
2023-03-22T03:25:20.914Z,76.04
2023-03-22T03:27:59.905Z,75.36
2023-03-22T03:30:39.167Z,76.94
2023-03-22T03:33:16.536Z,77.53
2023-03-22T03:35:52.007Z,78.28
2023-03-22T03:38:26.898Z,77.71
2023-03-22T03:41:02.165Z,76.81
2023-03-22T03:43:33.594Z,76.35
2023-03-22T03:46:04.645Z,74.84
2023-03-22T03:48:38.430Z,74.33
2023-03-22T03:51:10.154Z,74.16
2023-03-22T03:53:40.810Z,74.22
2023-03-22T03:56:13.098Z,73.91
2023-03-22T03:58:47.629Z,73.48
2023-03-22T04:01:19.672Z,72.83
2023-03-22T04:04:11.365Z,71.86
2023-03-22T04:06:50.448Z,71.70
2023-03-22T04:09:25.004Z,71.59
2023-03-22T04:11:58.187Z,72.16
2023-03-22T04:14:29.426Z,72.37
2023-03-22T04:17:01.566Z,72.89
2023-03-22T04:19:34.134Z,72.99
2023-03-22T04:22:05.063Z,73.15
2023-03-22T04:24:37.883Z,72.37
2023-03-22T04:27:09.484Z,72.85
2023-03-22T04:29:55.956Z,71.94
2023-03-22T04:32:47.291Z,71.39
2023-03-22T04:35:18.594Z,71.61
2023-03-22T04:37:49.831Z,72.04
2023-03-22T04:40:26.492Z,72.23
2023-03-22T04:43:09.918Z,72.48
2023-03-22T04:46:02.118Z,73.78
2023-03-22T04:48:39.163Z,73.52
2023-03-22T04:51:11.960Z,73.50
2023-03-22T04:53:48.669Z,73.40
2023-03-22T04:56:19.975Z,72.75
2023-03-22T04:58:52.809Z,73.34
2023-03-22T05:01:23.592Z,73.32
2023-03-22T05:04:00.788Z,73.19
2023-03-22T05:06:32.801Z,73.06
2023-03-22T05:09:12.455Z,72.74
2023-03-22T05:11:43.808Z,73.39
2023-03-22T05:14:24.674Z,73.44
2023-03-22T05:16:55.738Z,73.10
2023-03-22T05:19:26.433Z,72.68
2023-03-22T05:21:58.615Z,73.71
2023-03-22T05:24:39.986Z,73.50
2023-03-22T05:27:14.265Z,73.15
2023-03-22T05:29:46.893Z,72.87
2023-03-22T05:32:29.222Z,72.58
2023-03-22T05:35:03.648Z,71.94
2023-03-22T05:37:38.858Z,72.30
2023-03-22T05:40:11.629Z,72.10
2023-03-22T05:42:46.581Z,71.97
2023-03-22T05:45:25.122Z,72.11
2023-03-22T05:48:07.113Z,72.08
2023-03-22T05:50:39.050Z,71.66
2023-03-22T05:53:11.604Z,71.08
2023-03-22T05:56:00.826Z,71.08
2023-03-22T05:58:33.633Z,70.67
2023-03-22T06:01:10.977Z,71.05
2023-03-22T06:03:51.637Z,70.81
2023-03-22T06:06:29.253Z,70.12
2023-03-22T06:09:17.697Z,69.96
2023-03-22T06:11:52.287Z,69.43
2023-03-22T06:14:23.360Z,69.03
2023-03-22T06:17:06.790Z,69.23
2023-03-22T06:19:37.591Z,69.68
2023-03-22T06:22:08.846Z,69.93
2023-03-22T06:24:40.819Z,70.60
2023-03-22T06:27:12.374Z,70.60
2023-03-22T06:29:43.875Z,70.70
2023-03-22T06:32:15.865Z,70.43
2023-03-22T06:34:46.886Z,70.09
2023-03-22T06:37:18.345Z,70.57
2023-03-22T06:39:49.040Z,69.98
2023-03-22T06:42:20.300Z,70.01
2023-03-22T06:44:52.570Z,69.95
2023-03-22T06:47:33.012Z,68.64
2023-03-22T06:50:31.048Z,68.97
2023-03-22T06:53:10.662Z,67.77
2023-03-22T06:55:42.197Z,66.51
2023-03-22T06:58:19.020Z,65.85
2023-03-22T07:00:49.745Z,65.57
2023-03-22T07:03:21.862Z,65.47
2023-03-22T07:06:09.600Z,65.28
2023-03-22T07:08:42.658Z,65.28
2023-03-22T07:11:14.322Z,65.23
2023-03-22T07:13:46.395Z,65.11
2023-03-22T07:16:20.773Z,65.00
2023-03-22T07:18:55.998Z,64.78
2023-03-22T07:21:26.957Z,64.64
2023-03-22T07:24:03.379Z,64.46
2023-03-22T07:26:34.484Z,64.45
2023-03-22T07:29:05.453Z,64.22
2023-03-22T07:31:37.896Z,64.14
2023-03-22T07:34:11.438Z,63.93
2023-03-22T07:37:20.912Z,63.01
2023-03-22T07:39:51.944Z,62.95
2023-03-22T07:42:23.206Z,62.78
2023-03-22T07:45:24.450Z,62.77
2023-03-22T07:48:17.982Z,62.58
2023-03-22T07:50:59.725Z,62.31
2023-03-22T07:53:30.473Z,61.59
2023-03-22T07:56:01.237Z,60.94
2023-03-22T07:58:32.237Z,60.21
2023-03-22T08:01:09.329Z,59.65
2023-03-22T08:03:58.410Z,59.17
2023-03-22T08:06:37.499Z,58.95
2023-03-22T08:09:09.429Z,58.23
2023-03-22T08:11:40.571Z,58.01
2023-03-22T08:14:11.345Z,57.77
2023-03-22T08:16:44.291Z,57.59
2023-03-22T08:19:15.819Z,56.50
2023-03-22T08:21:47.492Z,56.87
2023-03-22T08:24:29.134Z,57.01
2023-03-22T08:27:09.126Z,57.51
2023-03-22T08:29:51.041Z,57.64
2023-03-22T08:32:21.912Z,57.22
2023-03-22T08:34:52.894Z,56.84
2023-03-22T08:37:23.723Z,56.37
2023-03-22T08:39:55.511Z,57.11
2023-03-22T08:42:41.460Z,57.03
2023-03-22T08:45:13.418Z,56.32
2023-03-22T08:47:49.112Z,55.86
2023-03-22T08:50:21.905Z,55.56
2023-03-22T08:53:02.869Z,55.67
2023-03-22T08:55:36.611Z,56.28
2023-03-22T08:58:19.897Z,56.35
2023-03-22T09:00:56.987Z,56.13
2023-03-22T09:03:45.529Z,56.02
2023-03-22T09:06:16.539Z,55.87
2023-03-22T09:08:52.151Z,56.00
2023-03-22T09:11:25.180Z,56.37
2023-03-22T09:13:55.904Z,56.85
2023-03-22T09:16:27.627Z,57.05
2023-03-22T09:18:58.624Z,57.07
2023-03-22T09:21:30.868Z,56.40
2023-03-22T09:24:14.266Z,56.49
2023-03-22T09:26:48.421Z,56.67
2023-03-22T09:29:21.010Z,56.16
2023-03-22T09:31:51.688Z,55.91
2023-03-22T09:34:25.696Z,55.50
2023-03-22T09:36:58.662Z,55.61
2023-03-22T09:39:31.697Z,55.25
2023-03-22T09:42:07.185Z,55.04
2023-03-22T09:44:43.894Z,55.29
2023-03-22T09:47:26.952Z,54.89
2023-03-22T09:50:06.839Z,54.07
2023-03-22T09:52:37.610Z,53.72
2023-03-22T09:55:20.694Z,52.46
2023-03-22T09:58:02.600Z,50.79
2023-03-22T10:00:42.340Z,50.88
2023-03-22T10:03:24.608Z,50.17
2023-03-22T10:06:00.904Z,49.49
2023-03-22T10:08:45.883Z,48.49
2023-03-22T10:11:28.247Z,48.58
2023-03-22T10:14:06.894Z,48.52
2023-03-22T10:16:38.967Z,48.20
2023-03-22T10:19:20.792Z,47.77
2023-03-22T10:21:55.645Z,48.63
2023-03-22T10:24:30.839Z,48.68
2023-03-22T10:27:02.221Z,48.22
2023-03-22T10:29:37.151Z,47.58
2023-03-22T10:32:17.965Z,47.86
2023-03-22T10:34:49.421Z,46.86
2023-03-22T10:37:24.885Z,47.39
2023-03-22T10:39:57.807Z,46.76
2023-03-22T10:42:31.545Z,46.52
2023-03-22T10:45:05.555Z,47.00
2023-03-22T10:47:41.535Z,47.62
2023-03-22T10:50:19.496Z,47.91
2023-03-22T10:52:56.664Z,46.79
2023-03-22T10:55:28.074Z,47.34
2023-03-22T10:58:12.148Z,47.88
2023-03-22T11:00:48.352Z,47.78
2023-03-22T11:03:30.405Z,47.01
2023-03-22T11:06:09.240Z,47.47
2023-03-22T11:08:46.896Z,47.50
2023-03-22T11:11:21.997Z,46.92
2023-03-22T11:13:56.578Z,45.84
2023-03-22T11:16:28.136Z,46.04
2023-03-22T11:19:02.474Z,46.26
2023-03-22T11:21:34.653Z,46.89
2023-03-22T11:24:08.214Z,46.63
2023-03-22T11:26:41.630Z,46.18
2023-03-22T11:29:18.107Z,45.96
2023-03-22T11:31:56.191Z,45.96
2023-03-22T11:34:27.144Z,46.47
2023-03-22T11:37:01.985Z,45.97
2023-03-22T11:39:32.892Z,45.62
2023-03-22T11:42:06.766Z,44.30
2023-03-22T11:44:38.580Z,44.71
2023-03-22T11:47:13.529Z,44.40
2023-03-22T11:49:48.065Z,44.60
2023-03-22T11:52:23.075Z,44.36
2023-03-22T11:54:54.773Z,44.62
2023-03-22T11:57:28.516Z,45.13
2023-03-22T12:00:07.293Z,44.84
2023-03-22T12:02:44.895Z,44.73
2023-03-22T12:05:22.928Z,44.75
2023-03-22T12:08:01.100Z,44.84
2023-03-22T12:10:38.180Z,44.67
2023-03-22T12:13:16.868Z,44.20
2023-03-22T12:15:53.866Z,43.94
2023-03-22T12:18:33.456Z,44.12
2023-03-22T12:21:04.482Z,43.95
2023-03-22T12:23:36.433Z,44.33
2023-03-22T12:26:14.085Z,44.06
2023-03-22T12:28:52.615Z,44.01
2023-03-22T12:31:27.806Z,44.60
2023-03-22T12:34:01.143Z,44.35
2023-03-22T12:36:41.512Z,44.19
2023-03-22T12:39:31.104Z,42.92
2023-03-22T12:42:04.981Z,43.37
2023-03-22T12:44:39.302Z,43.85
2023-03-22T12:47:20.071Z,43.52
2023-03-22T12:49:55.475Z,43.63
2023-03-22T12:52:44.733Z,43.88
2023-03-22T12:55:22.911Z,44.15
2023-03-22T12:57:54.687Z,45.45
2023-03-22T13:00:30.363Z,45.08
2023-03-22T13:03:10.593Z,45.16
2023-03-22T13:05:41.816Z,45.36
2023-03-22T13:08:13.029Z,45.20
2023-03-22T13:11:03.214Z,44.84
2023-03-22T13:13:45.762Z,44.76
2023-03-22T13:16:42.897Z,44.56
2023-03-22T13:19:36.937Z,43.22
2023-03-22T13:22:18.986Z,43.21
2023-03-22T13:25:08.701Z,43.40
2023-03-22T13:27:52.613Z,42.81
2023-03-22T13:30:29.410Z,42.17
2023-03-22T13:33:04.232Z,41.72
2023-03-22T13:35:46.805Z,41.67
2023-03-22T13:38:24.503Z,42.36
2023-03-22T13:41:00.726Z,42.23
2023-03-22T13:43:35.006Z,42.41
2023-03-22T13:46:28.861Z,42.96
2023-03-22T13:49:29.728Z,43.05
2023-03-22T13:52:03.705Z,43.37
2023-03-22T13:54:41.505Z,43.40
2023-03-22T13:57:38.979Z,43.74
2023-03-22T14:00:34.233Z,44.01
2023-03-22T14:03:12.866Z,44.24
2023-03-22T14:05:48.391Z,44.26
2023-03-22T14:08:26.496Z,44.37
2023-03-22T14:11:02.681Z,44.29
2023-03-22T14:13:39.298Z,44.33
2023-03-22T14:16:19.008Z,44.13
2023-03-22T14:18:51.349Z,44.71
2023-03-22T14:21:30.124Z,44.61
